createdAt,value
2022-08-22T00:00:15.625Z,84.71
2022-08-22T00:02:48.064Z,69.11
2022-08-22T00:02:56.361Z,69.38
2022-08-22T00:02:57.557Z,78.10
2022-08-22T00:02:57.904Z,81.37
2022-08-22T00:02:58.169Z,74.68
2022-08-22T00:02:59.808Z,76.35
2022-08-22T00:03:02.384Z,79.61
2022-08-22T00:06:06.350Z,84.12
2022-08-22T00:08:45.138Z,83.90
2022-08-22T00:11:25.164Z,84.52
2022-08-22T00:14:13.603Z,85.12
2022-08-22T00:16:53.433Z,85.00
2022-08-22T00:19:42.143Z,85.02
2022-08-22T00:22:18.609Z,84.81
2022-08-22T00:24:54.101Z,84.94
2022-08-22T00:27:34.299Z,85.16
2022-08-22T00:30:10.063Z,85.42
2022-08-22T00:33:02.519Z,84.89
2022-08-22T00:35:41.709Z,85.04
2022-08-22T00:38:27.163Z,84.89
2022-08-22T00:41:07.155Z,85.02
2022-08-22T00:43:46.171Z,84.57
2022-08-22T00:46:41.325Z,84.28
2022-08-22T00:49:25.464Z,84.39
2022-08-22T00:52:31.332Z,84.27
2022-08-22T00:55:22.964Z,83.87
2022-08-22T00:58:25.421Z,83.44
2022-08-22T01:01:11.760Z,83.89
2022-08-22T01:03:44.842Z,83.87
2022-08-22T01:06:31.471Z,83.47
2022-08-22T01:09:29.512Z,83.86
2022-08-22T01:12:26.589Z,84.31
2022-08-22T01:15:02.047Z,83.89
2022-08-22T01:17:57.110Z,84.45
2022-08-22T01:20:56.580Z,84.53
2022-08-22T01:23:44.963Z,84.57
2022-08-22T01:26:39.112Z,85.43
2022-08-22T01:29:46.131Z,85.72
2022-08-22T01:32:31.359Z,85.52
2022-08-22T01:35:19.613Z,86.04
2022-08-22T01:38:08.565Z,86.74
2022-08-22T01:40:59.644Z,86.80
2022-08-22T01:44:07.749Z,86.69
2022-08-22T01:46:42.541Z,87.02
2022-08-22T01:49:31.783Z,87.02
2022-08-22T01:52:13.730Z,87.10
2022-08-22T01:54:51.123Z,87.30
2022-08-22T01:57:19.401Z,87.60
2022-08-22T01:59:50.151Z,88.05
2022-08-22T02:02:23.269Z,88.27
2022-08-22T02:05:11.811Z,88.56
2022-08-22T02:08:06.262Z,88.26
2022-08-22T02:10:54.106Z,88.03
2022-08-22T02:14:14.891Z,88.34
2022-08-22T02:16:48.225Z,88.31
2022-08-22T02:19:15.264Z,87.75
2022-08-22T02:21:56.960Z,87.54
2022-08-22T02:24:45.368Z,87.32
2022-08-22T02:27:20.255Z,87.32
2022-08-22T02:29:59.293Z,87.20
2022-08-22T02:32:41.175Z,86.75
2022-08-22T02:35:16.646Z,86.73
2022-08-22T02:37:58.027Z,86.67
2022-08-22T02:40:42.020Z,87.33
2022-08-22T02:43:24.261Z,87.99
2022-08-22T02:46:13.414Z,87.64
2022-08-22T02:49:04.702Z,88.25
2022-08-22T02:51:45.484Z,88.11
2022-08-22T02:54:31.343Z,88.93
2022-08-22T02:57:06.141Z,88.43
2022-08-22T03:00:32.608Z,88.41
2022-08-22T03:03:16.744Z,88.26
2022-08-22T03:05:43.740Z,88.21
2022-08-22T03:08:47.423Z,89.03
2022-08-22T03:11:35.681Z,88.63
2022-08-22T03:14:28.397Z,88.37
2022-08-22T03:17:10.992Z,88.31
2022-08-22T03:19:51.638Z,88.40
2022-08-22T03:22:43.717Z,88.29
2022-08-22T03:25:20.308Z,87.87
2022-08-22T03:28:21.781Z,87.67
2022-08-22T03:30:51.519Z,88.09
2022-08-22T03:33:28.115Z,87.83
2022-08-22T03:36:03.031Z,87.82
2022-08-22T03:38:33.008Z,88.11
2022-08-22T03:41:42.245Z,88.29
2022-08-22T03:44:18.300Z,87.94
2022-08-22T03:47:12.937Z,88.13
2022-08-22T03:49:45.881Z,88.15
2022-08-22T03:52:31.347Z,88.19
2022-08-22T03:55:23.359Z,88.40
2022-08-22T03:58:27.848Z,88.74
2022-08-22T04:01:22.940Z,89.30
2022-08-22T04:04:19.099Z,90.62
2022-08-22T04:07:28.218Z,90.87
2022-08-22T04:10:25.605Z,90.42
2022-08-22T04:13:13.996Z,90.53
2022-08-22T04:15:57.642Z,90.58
2022-08-22T04:18:36.850Z,90.94
2022-08-22T04:21:32.752Z,91.32
2022-08-22T04:24:52.215Z,90.92
2022-08-22T04:27:25.890Z,89.87
2022-08-22T04:30:06.006Z,90.08
2022-08-22T04:32:53.059Z,90.46
2022-08-22T04:35:37.482Z,90.33
2022-08-22T04:38:17.119Z,90.76
2022-08-22T04:41:04.511Z,91.03
2022-08-22T04:44:01.382Z,90.96
2022-08-22T04:46:41.906Z,90.75
2022-08-22T04:49:22.839Z,89.86
2022-08-22T04:52:12.984Z,90.92
2022-08-22T04:55:17.758Z,90.33
2022-08-22T04:57:53.489Z,88.58
2022-08-22T05:00:20.701Z,87.78
2022-08-22T05:02:55.295Z,87.38
2022-08-22T05:05:27.090Z,88.00
2022-08-22T05:07:58.851Z,87.35
2022-08-22T05:10:28.764Z,87.42
2022-08-22T05:13:02.375Z,86.94
2022-08-22T05:15:44.274Z,86.26
2022-08-22T05:18:23.264Z,85.92
2022-08-22T05:20:57.747Z,85.75
2022-08-22T05:23:29.980Z,85.93
2022-08-22T05:26:06.026Z,85.48
2022-08-22T05:29:02.433Z,85.87
2022-08-22T05:31:35.277Z,84.76
2022-08-22T05:34:08.041Z,84.47
2022-08-22T05:36:42.223Z,83.54
2022-08-22T05:39:14.581Z,83.65
2022-08-22T05:41:42.931Z,83.30
2022-08-22T05:44:21.741Z,81.90
2022-08-22T05:47:01.882Z,81.73
2022-08-22T05:49:55.187Z,81.76
2022-08-22T05:52:45.355Z,81.95
2022-08-22T05:55:21.166Z,81.17
2022-08-22T05:57:54.742Z,79.98
2022-08-22T06:00:25.938Z,79.95
2022-08-22T06:03:33.797Z,78.44
2022-08-22T06:06:09.814Z,78.57
2022-08-22T06:08:41.980Z,77.31
2022-08-22T06:11:24.014Z,77.28
2022-08-22T06:14:01.242Z,76.14
2022-08-22T06:16:56.821Z,75.56
2022-08-22T06:19:24.510Z,75.67
2022-08-22T06:21:54.568Z,74.79
2022-08-22T06:24:27.547Z,73.97
2022-08-22T06:26:59.921Z,73.51
2022-08-22T06:29:36.345Z,72.86
2022-08-22T06:32:12.395Z,72.31
2022-08-22T06:34:43.056Z,71.59
2022-08-22T06:37:18.644Z,70.69
2022-08-22T06:39:50.988Z,70.58
2022-08-22T06:42:26.128Z,68.85
2022-08-22T06:45:00.435Z,69.15
2022-08-22T06:47:43.565Z,68.87
2022-08-22T06:50:33.446Z,66.76
2022-08-22T06:53:26.961Z,65.72
2022-08-22T06:55:57.846Z,66.08
2022-08-22T06:58:34.523Z,63.44
2022-08-22T07:01:22.590Z,64.41
2022-08-22T07:04:03.367Z,65.68
2022-08-22T07:06:38.525Z,66.06
2022-08-22T07:09:07.203Z,65.85
2022-08-22T07:11:39.682Z,64.99
2022-08-22T07:14:17.143Z,64.04
2022-08-22T07:17:02.538Z,62.11
2022-08-22T07:19:39.080Z,62.68
2022-08-22T07:22:21.664Z,63.48
2022-08-22T07:24:53.700Z,63.17
2022-08-22T07:27:32.704Z,63.02
2022-08-22T07:30:14.175Z,62.98
2022-08-22T07:32:51.253Z,62.48
2022-08-22T07:35:21.415Z,62.18
2022-08-22T07:38:15.112Z,62.00
2022-08-22T07:40:48.443Z,62.05
2022-08-22T07:43:39.919Z,59.59
2022-08-22T07:46:27.991Z,58.35
2022-08-22T07:49:09.002Z,60.33
2022-08-22T07:51:44.467Z,59.56
2022-08-22T07:54:21.827Z,60.18
2022-08-22T07:56:58.079Z,59.69
2022-08-22T07:59:28.289Z,59.58
2022-08-22T08:01:59.461Z,59.77
2022-08-22T08:04:36.880Z,57.38
2022-08-22T08:07:11.085Z,58.40
2022-08-22T08:09:44.766Z,58.29
2022-08-22T08:12:15.100Z,57.36
2022-08-22T08:14:45.591Z,57.08
2022-08-22T08:17:15.354Z,57.18
2022-08-22T08:19:44.310Z,56.63
2022-08-22T08:22:26.712Z,55.89
2022-08-22T08:24:58.543Z,55.64
2022-08-22T08:27:50.316Z,55.85
2022-08-22T08:30:22.938Z,55.72
2022-08-22T08:33:24.308Z,54.43
2022-08-22T08:36:03.351Z,54.08
2022-08-22T08:38:48.673Z,53.22
2022-08-22T08:41:54.546Z,53.01
2022-08-22T08:44:52.774Z,52.47
2022-08-22T08:47:31.119Z,53.08
2022-08-22T08:50:36.074Z,53.10
2022-08-22T08:53:26.126Z,52.57
2022-08-22T08:56:26.315Z,51.71
2022-08-22T08:59:31.504Z,51.63
2022-08-22T09:02:20.341Z,51.93
2022-08-22T09:05:12.163Z,51.36
2022-08-22T09:08:12.374Z,52.41
2022-08-22T09:11:01.217Z,53.71
2022-08-22T09:13:49.346Z,54.19
2022-08-22T09:16:51.905Z,54.74
2022-08-22T09:19:56.722Z,53.39
2022-08-22T09:22:59.133Z,54.18
2022-08-22T09:25:43.173Z,54.43
2022-08-22T09:28:19.785Z,54.27
2022-08-22T09:31:17.103Z,53.89
2022-08-22T09:34:09.265Z,53.14
2022-08-22T09:37:08.474Z,53.23
2022-08-22T09:40:08.475Z,52.33
2022-08-22T09:43:04.835Z,51.51
2022-08-22T09:45:40.557Z,50.62
2022-08-22T09:48:31.961Z,50.98
2022-08-22T09:51:32.146Z,50.81
2022-08-22T09:54:14.195Z,50.07
2022-08-22T09:56:47.365Z,49.78
2022-08-22T09:59:33.666Z,49.68
2022-08-22T10:02:36.072Z,49.32
2022-08-22T10:05:35.255Z,49.66
2022-08-22T10:08:11.474Z,50.11
2022-08-22T10:10:47.377Z,50.52
2022-08-22T10:13:32.416Z,50.11
2022-08-22T10:16:19.960Z,51.29
2022-08-22T10:19:05.145Z,50.39
2022-08-22T10:21:44.807Z,51.32
2022-08-22T10:24:51.607Z,51.91
2022-08-22T10:27:36.975Z,50.43
2022-08-22T10:30:16.299Z,49.18
2022-08-22T10:33:00.761Z,50.03
2022-08-22T10:35:57.600Z,49.31
2022-08-22T10:38:44.003Z,49.67
2022-08-22T10:41:40.894Z,47.25
2022-08-22T10:44:21.790Z,47.89
2022-08-22T10:47:08.745Z,48.43
2022-08-22T10:49:55.806Z,48.42
2022-08-22T10:52:31.459Z,48.28
2022-08-22T10:55:17.662Z,47.62
2022-08-22T10:57:53.446Z,48.14
2022-08-22T11:00:49.811Z,48.26
2022-08-22T11:03:26.367Z,48.14
2022-08-22T11:06:03.638Z,47.78
2022-08-22T11:08:39.654Z,46.71
2022-08-22T11:11:07.565Z,46.79
2022-08-22T11:13:37.490Z,45.97
2022-08-22T11:16:36.726Z,44.98
2022-08-22T11:19:14.928Z,44.35
2022-08-22T11:21:54.545Z,45.42
2022-08-22T11:24:55.743Z,45.55
2022-08-22T11:27:54.425Z,45.66
2022-08-22T11:30:44.179Z,45.81
2022-08-22T11:33:39.091Z,45.65
2022-08-22T11:36:37.481Z,44.03
2022-08-22T11:39:30.821Z,43.25
2022-08-22T11:42:08.687Z,43.90
2022-08-22T11:44:58.506Z,43.03
2022-08-22T11:47:30.594Z,42.70
2022-08-22T11:50:15.294Z,43.68
2022-08-22T11:52:57.578Z,42.98
2022-08-22T11:55:56.790Z,40.78
2022-08-22T11:58:38.942Z,40.75
2022-08-22T12:01:18.385Z,39.72
2022-08-22T12:04:09.826Z,39.23
2022-08-22T12:06:41.936Z,38.38
2022-08-22T12:09:47.652Z,38.14
2022-08-22T12:12:36.464Z,35.99
2022-08-22T12:15:12.383Z,35.57
2022-08-22T12:18:01.811Z,34.79
2022-08-22T12:20:48.117Z,36.76
2022-08-22T12:23:57.922Z,37.49
2022-08-22T12:26:54.829Z,36.41
2022-08-22T12:30:13.788Z,35.60
2022-08-22T12:32:59.857Z,35.82
2022-08-22T12:35:35.557Z,34.83
2022-08-22T12:38:28.503Z,35.18
2022-08-22T12:40:59.615Z,34.20
2022-08-22T12:43:49.554Z,34.79
2022-08-22T12:46:34.697Z,33.50
2022-08-22T12:49:11.647Z,32.74
2022-08-22T12:51:51.907Z,33.37
2022-08-22T12:55:08.004Z,33.26
2022-08-22T12:57:59.586Z,32.26
2022-08-22T13:00:32.954Z,32.28
2022-08-22T13:03:04.763Z,32.78
2022-08-22T13:05:40.455Z,32.99
2022-08-22T13:08:26.960Z,35.32
2022-08-22T13:11:22.617Z,34.95
2022-08-22T13:13:57.360Z,34.36
2022-08-22T13:16:33.995Z,34.00
2022-08-22T13:19:13.455Z,33.46
2022-08-22T13:21:48.306Z,33.39
2022-08-22T13:24:22.845Z,35.16
2022-08-22T13:27:14.940Z,34.19
2022-08-22T13:29:51.491Z,33.42
2022-08-22T13:32:26.370Z,33.57
2022-08-22T13:34:57.988Z,32.58
2022-08-22T13:37:44.847Z,32.71
2022-08-22T13:40:22.471Z,32.94
2022-08-22T13:42:54.617Z,32.83
2022-08-22T13:45:28.830Z,33.53
2022-08-22T13:48:12.966Z,34.70
2022-08-22T13:51:09.929Z,35.49
2022-08-22T13:54:00.513Z,35.02
2022-08-22T13:57:06.515Z,35.14
2022-08-22T13:59:57.764Z,36.30
2022-08-22T14:02:49.740Z,36.16
2022-08-22T14:05:25.477Z,36.82
2022-08-22T14:08:18.485Z,36.30
2022-08-22T14:11:03.546Z,36.25
2022-08-22T14:13:59.461Z,37.29
2022-08-22T14:16:33.558Z,37.05
2022-08-22T14:19:07.260Z,37.21
2022-08-22T14:21:46.274Z,38.27
2022-08-22T14:24:25.855Z,39.34
2022-08-22T14:27:05.184Z,39.20
2022-08-22T14:29:51.218Z,42.90
2022-08-22T14:32:22.747Z,43.80
2022-08-22T14:35:29.339Z,43.19
2022-08-22T14:38:30.096Z,44.28
2022-08-22T14:41:10.749Z,44.11
2022-08-22T14:43:51.609Z,44.44
2022-08-22T14:46:26.461Z,44.67
2022-08-22T14:49:18.707Z,45.13
2022-08-22T14:52:03.939Z,45.35
2022-08-22T14:54:32.651Z,45.31
2022-08-22T14:57:02.539Z,45.03
2022-08-22T14:59:32.906Z,45.51
2022-08-22T15:02:14.605Z,45.28
2022-08-22T15:04:48.388Z,45.54
2022-08-22T15:07:31.227Z,45.33
2022-08-22T15:10:08.175Z,45.23
2022-08-22T15:12:47.727Z,44.78
2022-08-22T15:15:31.018Z,45.21
2022-08-22T15:17:59.667Z,45.28
2022-08-22T15:20:36.592Z,45.11
2022-08-22T15:23:23.386Z,45.14
2022-08-22T15:26:07.557Z,45.74
2022-08-22T15:28:53.087Z,46.07
2022-08-22T15:31:22.784Z,45.88
2022-08-22T15:33:51.252Z,45.80
2022-08-22T15:36:24.482Z,45.44
2022-08-22T15:39:16.741Z,45.46
2022-08-22T15:41:49.446Z,45.04
2022-08-22T15:44:33.075Z,46.53
2022-08-22T15:47:10.942Z,48.92
2022-08-22T15:49:51.107Z,54.17
2022-08-22T15:52:31.431Z,57.62
2022-08-22T15:55:24.842Z,59.71
2022-08-22T15:58:02.508Z,62.48
2022-08-22T16:00:36.130Z,63.05
2022-08-22T16:03:27.243Z,64.80
2022-08-22T16:06:07.519Z,65.65
2022-08-22T16:08:51.823Z,65.67
2022-08-22T16:11:33.577Z,65.54
2022-08-22T16:14:36.027Z,65.67
2022-08-22T16:17:25.891Z,64.37
2022-08-22T16:20:19.530Z,63.93
2022-08-22T16:22:59.376Z,63.26
2022-08-22T16:25:44.922Z,62.51
2022-08-22T16:28:57.410Z,61.94
2022-08-22T16:31:27.790Z,62.36
2022-08-22T16:34:16.858Z,62.78
2022-08-22T16:36:48.663Z,62.82
2022-08-22T16:39:21.522Z,62.28
2022-08-22T16:41:51.835Z,62.06
2022-08-22T16:44:30.822Z,61.33
2022-08-22T16:47:29.780Z,61.29
2022-08-22T16:50:23.181Z,61.21
2022-08-22T16:53:10.745Z,61.08
2022-08-22T16:55:49.287Z,60.69
2022-08-22T16:58:55.886Z,60.89
2022-08-22T17:01:30.169Z,62.21
2022-08-22T17:04:17.930Z,62.31
2022-08-22T17:07:02.281Z,63.06
2022-08-22T17:09:54.017Z,62.81
2022-08-22T17:12:45.760Z,63.68
2022-08-22T17:15:31.408Z,65.21
2022-08-22T17:18:16.877Z,67.42
2022-08-22T17:21:06.162Z,67.43
2022-08-22T17:23:46.597Z,68.20
2022-08-22T17:26:44.213Z,68.21
2022-08-22T17:29:38.391Z,68.74
2022-08-22T17:32:32.882Z,69.36
2022-08-22T17:35:07.675Z,69.57
2022-08-22T17:37:58.299Z,70.83
2022-08-22T17:40:57.652Z,72.50
2022-08-22T17:43:32.807Z,73.86
2022-08-22T17:46:49.149Z,72.90
2022-08-22T17:49:40.850Z,74.98
2022-08-22T17:52:16.040Z,75.23
2022-08-22T17:54:56.764Z,77.12
2022-08-22T17:57:26.419Z,76.52
2022-08-22T18:00:12.347Z,77.83
2022-08-22T18:02:50.215Z,80.50
2022-08-22T18:05:46.053Z,80.49
2022-08-22T18:11:24.792Z,80.66
2022-08-22T18:14:04.981Z,81.68
2022-08-22T18:16:44.065Z,81.27
2022-08-22T18:19:35.737Z,83.74
2022-08-22T18:22:34.251Z,83.63
2022-08-22T18:25:33.393Z,83.96
2022-08-22T18:28:09.945Z,85.48
2022-08-22T18:30:56.215Z,87.66
2022-08-22T18:33:36.232Z,89.83
2022-08-22T18:36:15.325Z,90.57
2022-08-22T18:39:00.078Z,90.38
2022-08-22T18:41:39.842Z,90.73
2022-08-22T18:44:18.560Z,88.68
2022-08-22T18:46:51.571Z,91.62
2022-08-22T18:49:22.268Z,90.93
2022-08-22T18:52:17.287Z,89.15
2022-08-22T18:55:01.059Z,91.60
2022-08-22T18:57:57.952Z,92.41
2022-08-22T19:01:03.012Z,92.39
2022-08-22T19:03:36.356Z,91.88
2022-08-22T19:06:38.268Z,94.49
2022-08-22T19:09:11.207Z,95.75
2022-08-22T19:11:51.850Z,97.09
2022-08-22T19:14:27.776Z,98.21
2022-08-22T19:17:19.600Z,98.94
2022-08-22T19:20:25.097Z,100.00
2022-08-22T19:23:32.433Z,100.00
2022-08-22T19:26:24.162Z,100.00
2022-08-22T19:29:18.109Z,100.00
2022-08-22T19:32:00.432Z,100.00
2022-08-22T19:34:32.853Z,100.00
2022-08-22T19:37:31.011Z,100.00
2022-08-22T19:40:11.084Z,100.00
2022-08-22T19:42:41.646Z,100.00
2022-08-22T19:45:25.819Z,100.00
2022-08-22T19:47:58.249Z,100.00
2022-08-22T19:50:36.805Z,100.00
2022-08-22T19:53:09.907Z,100.00
2022-08-22T19:55:36.924Z,100.00
2022-08-22T19:58:13.131Z,100.00
2022-08-22T20:00:59.970Z,99.24
2022-08-22T20:03:41.525Z,97.85
2022-08-22T20:06:40.847Z,96.24
2022-08-22T20:09:34.517Z,93.81
2022-08-22T20:12:24.320Z,91.84
2022-08-22T20:14:52.407Z,89.61
2022-08-22T20:17:25.594Z,86.63
2022-08-22T20:20:18.375Z,87.83
2022-08-22T20:22:56.819Z,88.02
2022-08-22T20:26:00.567Z,86.59
2022-08-22T20:28:39.973Z,88.29
2022-08-22T20:31:18.568Z,87.77
2022-08-22T20:33:46.818Z,88.19
2022-08-22T20:36:28.433Z,88.54
2022-08-22T20:39:16.309Z,87.91
2022-08-22T20:41:48.515Z,86.61
2022-08-22T20:44:21.828Z,85.24
2022-08-22T20:46:53.283Z,86.79
2022-08-22T20:49:25.382Z,88.16
2022-08-22T20:52:00.265Z,88.67
2022-08-22T20:54:33.793Z,88.22
2022-08-22T20:57:10.459Z,88.45
2022-08-22T20:59:41.841Z,88.84
2022-08-22T21:02:38.828Z,89.35
2022-08-22T21:05:21.397Z,90.50
2022-08-22T21:08:06.576Z,90.67
2022-08-22T21:10:55.315Z,91.07
2022-08-22T21:13:37.894Z,91.52
2022-08-22T21:16:11.289Z,92.35
2022-08-22T21:18:48.377Z,93.46
2022-08-22T21:21:27.408Z,93.40
2022-08-22T21:24:00.773Z,94.15
2022-08-22T21:26:37.961Z,94.65
2022-08-22T21:29:05.476Z,94.47
2022-08-22T21:31:53.051Z,94.87
2022-08-22T21:34:26.745Z,95.79
2022-08-22T21:36:58.052Z,96.69
2022-08-22T21:39:51.241Z,97.94
2022-08-22T21:42:29.431Z,98.05
2022-08-22T21:45:02.750Z,99.13
2022-08-22T21:47:31.406Z,99.30
2022-08-22T21:50:16.101Z,99.80
2022-08-22T21:52:55.983Z,100.00
2022-08-22T21:55:25.322Z,100.00
2022-08-22T21:58:35.750Z,100.00
2022-08-22T22:01:28.517Z,100.00
2022-08-22T22:03:56.670Z,100.00
2022-08-22T22:06:23.834Z,100.00
2022-08-22T22:08:52.118Z,100.00
2022-08-22T22:11:19.691Z,100.00
2022-08-22T22:13:47.111Z,100.00
2022-08-22T22:16:19.111Z,100.00
2022-08-22T22:18:46.773Z,100.00
2022-08-22T22:21:13.725Z,100.00
2022-08-22T22:23:40.963Z,100.00
2022-08-22T22:26:08.259Z,100.00
2022-08-22T22:28:39.191Z,100.00
2022-08-22T22:31:07.293Z,100.00
2022-08-22T22:33:41.277Z,100.00
2022-08-22T22:36:13.222Z,100.00
2022-08-22T22:38:41.225Z,100.00
2022-08-22T22:41:08.782Z,100.00
2022-08-22T22:43:36.709Z,100.00
2022-08-22T22:46:03.888Z,100.00
2022-08-22T22:48:31.647Z,100.00
2022-08-22T22:50:58.762Z,100.00
2022-08-22T22:53:33.823Z,99.67
2022-08-22T22:56:09.448Z,98.78
2022-08-22T22:58:38.158Z,98.72
2022-08-22T23:01:15.368Z,98.33
2022-08-22T23:03:43.336Z,97.90
2022-08-22T23:06:13.205Z,98.18
2022-08-22T23:08:40.496Z,98.40
2022-08-22T23:11:15.635Z,96.35
2022-08-22T23:13:43.365Z,96.79
2022-08-22T23:16:13.801Z,97.27
2022-08-22T23:18:42.181Z,96.31
2022-08-22T23:21:16.443Z,96.57
2022-08-22T23:23:44.133Z,97.17
2022-08-22T23:26:12.089Z,98.23
2022-08-22T23:28:39.843Z,98.67
2022-08-22T23:31:35.138Z,98.42
2022-08-22T23:34:11.798Z,98.67
2022-08-22T23:36:41.335Z,99.79
2022-08-22T23:39:09.789Z,99.91
2022-08-22T23:41:37.595Z,100.00
2022-08-22T23:44:07.707Z,100.00
2022-08-22T23:46:41.240Z,100.00
2022-08-22T23:49:08.480Z,100.00
2022-08-22T23:51:36.393Z,100.00
2022-08-22T23:54:04.737Z,100.00
2022-08-22T23:56:32.928Z,100.00
2022-08-22T23:59:01.520Z,100.00
